sensor_id;sensor_type;location;lat;lon;timestamp;temperature;humidity
14749;DHT22;7466;53.574;9.976;2024-03-02T00:00:53;9.10;99.90
14749;DHT22;7466;53.574;9.976;2024-03-02T00:03:20;9.10;99.90
14749;DHT22;7466;53.574;9.976;2024-03-02T00:05:50;9.10;99.90
14749;DHT22;7466;53.574;9.976;2024-03-02T00:08:23;9.20;99.90
14749;DHT22;7466;53.574;9.976;2024-03-02T00:10:56;9.20;99.90
14749;DHT22;7466;53.574;9.976;2024-03-02T00:13:25;9.10;99.90
14749;DHT22;7466;53.574;9.976;2024-03-02T00:15:53;9.10;99.90
14749;DHT22;7466;53.574;9.976;2024-03-02T00:18:23;9.20;99.90
14749;DHT22;7466;53.574;9.976;2024-03-02T00:20:53;9.10;99.90
14749;DHT22;7466;53.574;9.976;2024-03-02T00:23:21;9.20;99.90
14749;DHT22;7466;53.574;9.976;2024-03-02T00:25:49;9.20;99.90
14749;DHT22;7466;53.574;9.976;2024-03-02T00:28:20;9.10;99.90
14749;DHT22;7466;53.574;9.976;2024-03-02T00:30:59;9.10;99.90
14749;DHT22;7466;53.574;9.976;2024-03-02T00:33:32;9.20;99.90
14749;DHT22;7466;53.574;9.976;2024-03-02T00:36:13;9.10;99.90
14749;DHT22;7466;53.574;9.976;2024-03-02T00:38:47;9.20;99.90
14749;DHT22;7466;53.574;9.976;2024-03-02T00:41:21;9.20;99.90
14749;DHT22;7466;53.574;9.976;2024-03-02T00:43:57;9.20;99.90
14749;DHT22;7466;53.574;9.976;2024-03-02T00:46:26;9.10;99.90
14749;DHT22;7466;53.574;9.976;2024-03-02T00:48:55;9.10;99.90
14749;DHT22;7466;53.574;9.976;2024-03-02T00:51:31;9.10;99.90
14749;DHT22;7466;53.574;9.976;2024-03-02T00:54:00;9.10;99.90
14749;DHT22;7466;53.574;9.976;2024-03-02T00:56:30;9.00;99.90
14749;DHT22;7466;53.574;9.976;2024-03-02T00:58:57;9.10;99.90
14749;DHT22;7466;53.574;9.976;2024-03-02T01:01:25;9.10;99.90
14749;DHT22;7466;53.574;9.976;2024-03-02T01:03:54;9.00;99.90
14749;DHT22;7466;53.574;9.976;2024-03-02T01:06:26;9.00;99.90
14749;DHT22;7466;53.574;9.976;2024-03-02T01:08:53;9.00;99.90
14749;DHT22;7466;53.574;9.976;2024-03-02T01:11:21;8.90;99.90
14749;DHT22;7466;53.574;9.976;2024-03-02T01:13:48;8.90;99.90
14749;DHT22;7466;53.574;9.976;2024-03-02T01:16:18;8.90;99.90
14749;DHT22;7466;53.574;9.976;2024-03-02T01:18:52;8.80;99.90
14749;DHT22;7466;53.574;9.976;2024-03-02T01:21:19;8.80;99.90
14749;DHT22;7466;53.574;9.976;2024-03-02T01:23:46;8.80;99.90
14749;DHT22;7466;53.574;9.976;2024-03-02T01:26:13;8.80;99.90
14749;DHT22;7466;53.574;9.976;2024-03-02T01:28:40;8.70;99.90
14749;DHT22;7466;53.574;9.976;2024-03-02T01:31:07;8.70;99.90
14749;DHT22;7466;53.574;9.976;2024-03-02T01:33:33;8.70;99.90
14749;DHT22;7466;53.574;9.976;2024-03-02T01:36:02;8.60;99.90
14749;DHT22;7466;53.574;9.976;2024-03-02T01:38:28;8.60;99.90
14749;DHT22;7466;53.574;9.976;2024-03-02T01:40:55;8.60;99.90
14749;DHT22;7466;53.574;9.976;2024-03-02T01:43:22;8.60;99.90
14749;DHT22;7466;53.574;9.976;2024-03-02T01:45:51;8.50;99.90
14749;DHT22;7466;53.574;9.976;2024-03-02T01:48:27;8.50;99.90
14749;DHT22;7466;53.574;9.976;2024-03-02T01:50:53;8.40;99.90
14749;DHT22;7466;53.574;9.976;2024-03-02T01:53:22;8.40;99.90
14749;DHT22;7466;53.574;9.976;2024-03-02T01:55:49;8.40;99.90
14749;DHT22;7466;53.574;9.976;2024-03-02T01:58:15;8.30;99.90
14749;DHT22;7466;53.574;9.976;2024-03-02T02:00:42;8.30;99.90
14749;DHT22;7466;53.574;9.976;2024-03-02T02:03:10;8.30;99.90
14749;DHT22;7466;53.574;9.976;2024-03-02T02:05:37;8.30;99.90
14749;DHT22;7466;53.574;9.976;2024-03-02T02:08:06;8.30;99.90
14749;DHT22;7466;53.574;9.976;2024-03-02T02:10:36;8.20;99.90
14749;DHT22;7466;53.574;9.976;2024-03-02T02:13:05;8.20;99.90
14749;DHT22;7466;53.574;9.976;2024-03-02T02:15:34;8.20;99.90
14749;DHT22;7466;53.574;9.976;2024-03-02T02:18:02;8.20;99.90
14749;DHT22;7466;53.574;9.976;2024-03-02T02:20:29;8.20;99.90
14749;DHT22;7466;53.574;9.976;2024-03-02T02:23:00;8.20;99.90
14749;DHT22;7466;53.574;9.976;2024-03-02T02:25:30;8.10;99.90
14749;DHT22;7466;53.574;9.976;2024-03-02T02:28:01;8.10;99.90
14749;DHT22;7466;53.574;9.976;2024-03-02T02:30:29;8.10;99.90
14749;DHT22;7466;53.574;9.976;2024-03-02T02:32:57;8.10;99.90
14749;DHT22;7466;53.574;9.976;2024-03-02T02:35:24;8.10;99.90
14749;DHT22;7466;53.574;9.976;2024-03-02T02:37:51;8.10;99.90
14749;DHT22;7466;53.574;9.976;2024-03-02T02:40:23;8.10;99.90
14749;DHT22;7466;53.574;9.976;2024-03-02T02:42:50;8.00;99.90
14749;DHT22;7466;53.574;9.976;2024-03-02T02:45:17;8.10;99.90
14749;DHT22;7466;53.574;9.976;2024-03-02T02:47:44;8.10;99.90
14749;DHT22;7466;53.574;9.976;2024-03-02T02:50:12;8.10;99.90
14749;DHT22;7466;53.574;9.976;2024-03-02T02:52:40;8.10;99.90
14749;DHT22;7466;53.574;9.976;2024-03-02T02:55:08;8.00;99.90
14749;DHT22;7466;53.574;9.976;2024-03-02T02:57:38;8.00;99.90
14749;DHT22;7466;53.574;9.976;2024-03-02T03:00:07;8.00;99.90
14749;DHT22;7466;53.574;9.976;2024-03-02T03:02:37;8.00;99.90
14749;DHT22;7466;53.574;9.976;2024-03-02T03:05:05;8.00;99.90
14749;DHT22;7466;53.574;9.976;2024-03-02T03:07:32;8.00;99.90
14749;DHT22;7466;53.574;9.976;2024-03-02T03:09:59;8.00;99.90
14749;DHT22;7466;53.574;9.976;2024-03-02T03:12:26;8.00;99.90
14749;DHT22;7466;53.574;9.976;2024-03-02T03:14:54;8.00;99.90
14749;DHT22;7466;53.574;9.976;2024-03-02T03:17:21;8.00;99.90
14749;DHT22;7466;53.574;9.976;2024-03-02T03:19:48;8.00;99.90
14749;DHT22;7466;53.574;9.976;2024-03-02T03:22:15;8.00;99.90
14749;DHT22;7466;53.574;9.976;2024-03-02T03:24:42;8.00;99.90
14749;DHT22;7466;53.574;9.976;2024-03-02T03:27:11;8.00;99.90
14749;DHT22;7466;53.574;9.976;2024-03-02T03:29:37;8.00;99.90
14749;DHT22;7466;53.574;9.976;2024-03-02T03:32:06;8.00;99.90
14749;DHT22;7466;53.574;9.976;2024-03-02T03:34:33;8.00;99.90
14749;DHT22;7466;53.574;9.976;2024-03-02T03:37:00;8.00;99.90
14749;DHT22;7466;53.574;9.976;2024-03-02T03:39:29;8.00;99.90
14749;DHT22;7466;53.574;9.976;2024-03-02T03:41:56;8.00;99.90
14749;DHT22;7466;53.574;9.976;2024-03-02T03:44:22;8.00;99.90
14749;DHT22;7466;53.574;9.976;2024-03-02T03:46:49;8.00;99.90
14749;DHT22;7466;53.574;9.976;2024-03-02T03:49:17;8.00;99.90
14749;DHT22;7466;53.574;9.976;2024-03-02T03:51:44;7.90;99.90
14749;DHT22;7466;53.574;9.976;2024-03-02T03:54:11;7.90;99.90
14749;DHT22;7466;53.574;9.976;2024-03-02T03:56:40;7.90;99.90
14749;DHT22;7466;53.574;9.976;2024-03-02T03:59:06;7.90;99.90
14749;DHT22;7466;53.574;9.976;2024-03-02T04:01:33;7.90;99.90
14749;DHT22;7466;53.574;9.976;2024-03-02T04:04:00;7.90;99.90
14749;DHT22;7466;53.574;9.976;2024-03-02T04:06:30;7.90;99.90
14749;DHT22;7466;53.574;9.976;2024-03-02T04:08:57;7.90;99.90
14749;DHT22;7466;53.574;9.976;2024-03-02T04:11:24;7.90;99.90
14749;DHT22;7466;53.574;9.976;2024-03-02T04:13:50;7.90;99.90
14749;DHT22;7466;53.574;9.976;2024-03-02T04:16:17;7.90;99.90
14749;DHT22;7466;53.574;9.976;2024-03-02T04:18:44;7.90;99.90
14749;DHT22;7466;53.574;9.976;2024-03-02T04:21:11;7.90;99.90
14749;DHT22;7466;53.574;9.976;2024-03-02T04:23:40;7.90;99.90
14749;DHT22;7466;53.574;9.976;2024-03-02T04:26:07;7.80;99.90
14749;DHT22;7466;53.574;9.976;2024-03-02T04:28:34;7.90;99.90
14749;DHT22;7466;53.574;9.976;2024-03-02T04:31:01;7.90;99.90
14749;DHT22;7466;53.574;9.976;2024-03-02T04:33:28;7.90;99.90
14749;DHT22;7466;53.574;9.976;2024-03-02T04:35:54;7.80;99.90
14749;DHT22;7466;53.574;9.976;2024-03-02T04:38:21;7.90;99.90
14749;DHT22;7466;53.574;9.976;2024-03-02T04:40:49;7.80;99.90
14749;DHT22;7466;53.574;9.976;2024-03-02T04:43:18;7.80;99.90
14749;DHT22;7466;53.574;9.976;2024-03-02T04:45:45;7.80;99.90
14749;DHT22;7466;53.574;9.976;2024-03-02T04:48:11;7.80;99.90
14749;DHT22;7466;53.574;9.976;2024-03-02T04:50:38;7.80;99.90
14749;DHT22;7466;53.574;9.976;2024-03-02T04:53:05;7.80;99.90
14749;DHT22;7466;53.574;9.976;2024-03-02T04:55:32;7.80;99.90
14749;DHT22;7466;53.574;9.976;2024-03-02T04:58:30;7.80;99.90
14749;DHT22;7466;53.574;9.976;2024-03-02T05:00:57;7.90;99.90
14749;DHT22;7466;53.574;9.976;2024-03-02T05:03:24;7.80;99.90
14749;DHT22;7466;53.574;9.976;2024-03-02T05:05:53;7.80;99.90
14749;DHT22;7466;53.574;9.976;2024-03-02T05:08:21;7.80;99.90
14749;DHT22;7466;53.574;9.976;2024-03-02T05:10:48;7.80;99.90
14749;DHT22;7466;53.574;9.976;2024-03-02T05:13:15;7.80;99.90
14749;DHT22;7466;53.574;9.976;2024-03-02T05:15:44;7.80;99.90
14749;DHT22;7466;53.574;9.976;2024-03-02T05:18:12;7.80;99.90
14749;DHT22;7466;53.574;9.976;2024-03-02T05:20:38;7.80;99.90
14749;DHT22;7466;53.574;9.976;2024-03-02T05:23:05;7.80;99.90
14749;DHT22;7466;53.574;9.976;2024-03-02T05:25:32;7.80;99.90
14749;DHT22;7466;53.574;9.976;2024-03-02T05:28:04;7.80;99.90
14749;DHT22;7466;53.574;9.976;2024-03-02T05:30:31;7.80;99.90
14749;DHT22;7466;53.574;9.976;2024-03-02T05:33:00;7.80;99.90
14749;DHT22;7466;53.574;9.976;2024-03-02T05:35:27;7.80;99.90
14749;DHT22;7466;53.574;9.976;2024-03-02T05:37:53;7.80;99.90
14749;DHT22;7466;53.574;9.976;2024-03-02T05:40:20;7.80;99.90
14749;DHT22;7466;53.574;9.976;2024-03-02T05:42:47;7.80;99.90
14749;DHT22;7466;53.574;9.976;2024-03-02T05:45:14;7.80;99.90
14749;DHT22;7466;53.574;9.976;2024-03-02T05:47:42;7.80;99.90
14749;DHT22;7466;53.574;9.976;2024-03-02T05:50:10;7.80;99.90
14749;DHT22;7466;53.574;9.976;2024-03-02T05:52:37;7.70;99.90
14749;DHT22;7466;53.574;9.976;2024-03-02T05:55:04;7.70;99.90
14749;DHT22;7466;53.574;9.976;2024-03-02T05:57:31;7.70;99.90
14749;DHT22;7466;53.574;9.976;2024-03-02T06:00:15;7.70;99.90
14749;DHT22;7466;53.574;9.976;2024-03-02T06:02:42;7.70;99.90
14749;DHT22;7466;53.574;9.976;2024-03-02T06:05:13;7.70;99.90
14749;DHT22;7466;53.574;9.976;2024-03-02T06:07:40;7.60;99.90
14749;DHT22;7466;53.574;9.976;2024-03-02T06:10:08;7.60;99.90
14749;DHT22;7466;53.574;9.976;2024-03-02T06:12:35;7.60;99.90
14749;DHT22;7466;53.574;9.976;2024-03-02T06:15:07;7.60;99.90
14749;DHT22;7466;53.574;9.976;2024-03-02T06:17:35;7.60;99.90
14749;DHT22;7466;53.574;9.976;2024-03-02T06:20:02;7.60;99.90
14749;DHT22;7466;53.574;9.976;2024-03-02T06:22:30;7.50;99.90
14749;DHT22;7466;53.574;9.976;2024-03-02T06:24:57;7.50;99.90
14749;DHT22;7466;53.574;9.976;2024-03-02T06:27:24;7.60;99.90
14749;DHT22;7466;53.574;9.976;2024-03-02T06:29:50;7.50;99.90
14749;DHT22;7466;53.574;9.976;2024-03-02T06:32:18;7.50;99.90
14749;DHT22;7466;53.574;9.976;2024-03-02T06:34:44;7.50;99.90
14749;DHT22;7466;53.574;9.976;2024-03-02T06:37:11;7.50;99.90
14749;DHT22;7466;53.574;9.976;2024-03-02T06:39:39;7.50;99.90
14749;DHT22;7466;53.574;9.976;2024-03-02T06:42:06;7.50;99.90
14749;DHT22;7466;53.574;9.976;2024-03-02T06:44:34;7.50;99.90
14749;DHT22;7466;53.574;9.976;2024-03-02T06:47:00;7.50;99.90
14749;DHT22;7466;53.574;9.976;2024-03-02T06:49:29;7.50;99.90
14749;DHT22;7466;53.574;9.976;2024-03-02T06:51:56;7.50;99.90
14749;DHT22;7466;53.574;9.976;2024-03-02T06:54:22;7.50;99.90
14749;DHT22;7466;53.574;9.976;2024-03-02T06:56:50;7.50;99.90
14749;DHT22;7466;53.574;9.976;2024-03-02T06:59:20;7.50;99.90
14749;DHT22;7466;53.574;9.976;2024-03-02T07:01:47;7.50;99.90
14749;DHT22;7466;53.574;9.976;2024-03-02T07:04:13;7.60;99.90
14749;DHT22;7466;53.574;9.976;2024-03-02T07:06:40;7.60;99.90
14749;DHT22;7466;53.574;9.976;2024-03-02T07:09:07;7.70;99.90
14749;DHT22;7466;53.574;9.976;2024-03-02T07:11:36;7.70;99.90
14749;DHT22;7466;53.574;9.976;2024-03-02T07:14:04;7.70;99.90
14749;DHT22;7466;53.574;9.976;2024-03-02T07:16:31;7.80;99.90
14749;DHT22;7466;53.574;9.976;2024-03-02T07:19:00;7.80;99.90
14749;DHT22;7466;53.574;9.976;2024-03-02T07:21:29;7.90;99.90
14749;DHT22;7466;53.574;9.976;2024-03-02T07:23:56;7.90;99.90
14749;DHT22;7466;53.574;9.976;2024-03-02T07:26:24;7.90;99.90
14749;DHT22;7466;53.574;9.976;2024-03-02T07:28:51;7.90;99.90
14749;DHT22;7466;53.574;9.976;2024-03-02T07:31:19;7.90;99.90
14749;DHT22;7466;53.574;9.976;2024-03-02T07:33:46;8.00;99.90
14749;DHT22;7466;53.574;9.976;2024-03-02T07:36:13;8.00;99.90
14749;DHT22;7466;53.574;9.976;2024-03-02T07:38:40;8.10;99.90
14749;DHT22;7466;53.574;9.976;2024-03-02T07:41:10;8.10;99.90
14749;DHT22;7466;53.574;9.976;2024-03-02T07:43:45;8.10;99.90
14749;DHT22;7466;53.574;9.976;2024-03-02T07:46:12;8.20;99.90
14749;DHT22;7466;53.574;9.976;2024-03-02T07:48:40;8.20;99.90
14749;DHT22;7466;53.574;9.976;2024-03-02T07:51:08;8.20;99.90
14749;DHT22;7466;53.574;9.976;2024-03-02T07:53:37;8.20;99.90
14749;DHT22;7466;53.574;9.976;2024-03-02T07:56:04;8.20;99.90
14749;DHT22;7466;53.574;9.976;2024-03-02T07:58:31;8.20;99.90
14749;DHT22;7466;53.574;9.976;2024-03-02T08:00:59;8.20;99.90
14749;DHT22;7466;53.574;9.976;2024-03-02T08:03:26;8.30;99.90
14749;DHT22;7466;53.574;9.976;2024-03-02T08:05:55;8.30;99.90
14749;DHT22;7466;53.574;9.976;2024-03-02T08:08:21;8.30;99.90
14749;DHT22;7466;53.574;9.976;2024-03-02T08:10:48;8.30;99.90
14749;DHT22;7466;53.574;9.976;2024-03-02T08:13:18;8.30;99.90
14749;DHT22;7466;53.574;9.976;2024-03-02T08:15:49;8.30;99.90
14749;DHT22;7466;53.574;9.976;2024-03-02T08:18:16;8.30;99.90
14749;DHT22;7466;53.574;9.976;2024-03-02T08:20:43;8.30;99.90
14749;DHT22;7466;53.574;9.976;2024-03-02T08:23:11;8.30;99.90
14749;DHT22;7466;53.574;9.976;2024-03-02T08:25:38;8.30;99.90
14749;DHT22;7466;53.574;9.976;2024-03-02T08:28:05;8.30;99.90
14749;DHT22;7466;53.574;9.976;2024-03-02T08:30:34;8.30;99.90
14749;DHT22;7466;53.574;9.976;2024-03-02T08:33:01;8.30;99.90
14749;DHT22;7466;53.574;9.976;2024-03-02T08:35:27;8.40;99.90
14749;DHT22;7466;53.574;9.976;2024-03-02T08:37:54;8.40;99.90
14749;DHT22;7466;53.574;9.976;2024-03-02T08:40:22;8.50;99.90
14749;DHT22;7466;53.574;9.976;2024-03-02T08:42:52;8.50;99.90
14749;DHT22;7466;53.574;9.976;2024-03-02T08:45:19;8.50;99.90
14749;DHT22;7466;53.574;9.976;2024-03-02T08:47:46;8.60;99.90
14749;DHT22;7466;53.574;9.976;2024-03-02T08:50:13;8.70;99.90
14749;DHT22;7466;53.574;9.976;2024-03-02T08:52:40;8.80;99.90
14749;DHT22;7466;53.574;9.976;2024-03-02T08:55:08;8.90;99.90
14749;DHT22;7466;53.574;9.976;2024-03-02T08:57:38;9.10;99.90
14749;DHT22;7466;53.574;9.976;2024-03-02T09:00:06;9.30;99.90
14749;DHT22;7466;53.574;9.976;2024-03-02T09:02:36;9.40;99.90
14749;DHT22;7466;53.574;9.976;2024-03-02T09:05:03;9.80;99.90
14749;DHT22;7466;53.574;9.976;2024-03-02T09:07:30;10.20;99.90
14749;DHT22;7466;53.574;9.976;2024-03-02T09:10:03;10.20;99.90
14749;DHT22;7466;53.574;9.976;2024-03-02T09:12:30;10.40;99.90
14749;DHT22;7466;53.574;9.976;2024-03-02T09:14:59;10.60;99.90
14749;DHT22;7466;53.574;9.976;2024-03-02T09:17:26;10.70;99.90
14749;DHT22;7466;53.574;9.976;2024-03-02T09:19:55;10.80;99.90
14749;DHT22;7466;53.574;9.976;2024-03-02T09:22:22;10.50;99.90
14749;DHT22;7466;53.574;9.976;2024-03-02T09:24:49;10.50;99.90
14749;DHT22;7466;53.574;9.976;2024-03-02T09:27:18;10.50;99.90
14749;DHT22;7466;53.574;9.976;2024-03-02T09:29:45;10.50;99.90
14749;DHT22;7466;53.574;9.976;2024-03-02T09:32:14;10.70;99.90
14749;DHT22;7466;53.574;9.976;2024-03-02T09:34:43;10.70;99.90
14749;DHT22;7466;53.574;9.976;2024-03-02T09:37:10;10.80;99.90
14749;DHT22;7466;53.574;9.976;2024-03-02T09:39:36;10.80;99.90
14749;DHT22;7466;53.574;9.976;2024-03-02T09:42:04;10.90;99.90
14749;DHT22;7466;53.574;9.976;2024-03-02T09:44:31;10.90;98.00
14749;DHT22;7466;53.574;9.976;2024-03-02T09:46:59;11.10;99.90
14749;DHT22;7466;53.574;9.976;2024-03-02T09:49:27;11.40;99.70
14749;DHT22;7466;53.574;9.976;2024-03-02T09:51:54;11.50;63.20
14749;DHT22;7466;53.574;9.976;2024-03-02T09:54:21;11.70;61.10
14749;DHT22;7466;53.574;9.976;2024-03-02T09:56:49;11.80;34.70
14749;DHT22;7466;53.574;9.976;2024-03-02T09:59:16;11.50;44.80
14749;DHT22;7466;53.574;9.976;2024-03-02T10:01:56;11.40;51.00
14749;DHT22;7466;53.574;9.976;2024-03-02T10:04:27;11.70;34.20
14749;DHT22;7466;53.574;9.976;2024-03-02T10:07:10;11.80;15.70
14749;DHT22;7466;53.574;9.976;2024-03-02T10:09:37;11.90;18.60
14749;DHT22;7466;53.574;9.976;2024-03-02T10:12:05;12.10;3.10
14749;DHT22;7466;53.574;9.976;2024-03-02T10:14:32;12.20;1.00
14749;DHT22;7466;53.574;9.976;2024-03-02T10:17:02;12.10;1.00
14749;DHT22;7466;53.574;9.976;2024-03-02T10:19:32;12.10;1.00
14749;DHT22;7466;53.574;9.976;2024-03-02T10:22:01;12.30;1.00
14749;DHT22;7466;53.574;9.976;2024-03-02T10:24:35;12.60;1.00
14749;DHT22;7466;53.574;9.976;2024-03-02T10:27:07;12.50;1.00
14749;DHT22;7466;53.574;9.976;2024-03-02T10:29:37;12.60;1.00
14749;DHT22;7466;53.574;9.976;2024-03-02T10:32:04;12.60;1.00
14749;DHT22;7466;53.574;9.976;2024-03-02T10:34:33;12.70;1.00
14749;DHT22;7466;53.574;9.976;2024-03-02T10:37:00;12.60;1.00
14749;DHT22;7466;53.574;9.976;2024-03-02T10:39:28;12.40;1.00
14749;DHT22;7466;53.574;9.976;2024-03-02T10:41:56;12.50;1.00
14749;DHT22;7466;53.574;9.976;2024-03-02T10:44:23;12.50;1.00
14749;DHT22;7466;53.574;9.976;2024-03-02T10:46:50;12.60;1.00
14749;DHT22;7466;53.574;9.976;2024-03-02T10:49:20;12.70;1.00
14749;DHT22;7466;53.574;9.976;2024-03-02T10:51:50;13.00;1.00
14749;DHT22;7466;53.574;9.976;2024-03-02T10:54:20;13.10;1.00
14749;DHT22;7466;53.574;9.976;2024-03-02T10:56:53;13.00;1.00
14749;DHT22;7466;53.574;9.976;2024-03-02T10:59:26;13.00;1.00
14749;DHT22;7466;53.574;9.976;2024-03-02T11:01:57;12.90;1.00
14749;DHT22;7466;53.574;9.976;2024-03-02T11:04:25;13.00;1.00
14749;DHT22;7466;53.574;9.976;2024-03-02T11:06:58;12.90;1.00
14749;DHT22;7466;53.574;9.976;2024-03-02T11:09:28;12.90;1.00
14749;DHT22;7466;53.574;9.976;2024-03-02T11:12:02;12.80;1.00
14749;DHT22;7466;53.574;9.976;2024-03-02T11:14:31;13.00;1.00
14749;DHT22;7466;53.574;9.976;2024-03-02T11:16:59;13.20;1.00
14749;DHT22;7466;53.574;9.976;2024-03-02T11:19:27;13.20;1.00
14749;DHT22;7466;53.574;9.976;2024-03-02T11:21:56;13.20;1.00
14749;DHT22;7466;53.574;9.976;2024-03-02T11:24:33;13.10;1.00
14749;DHT22;7466;53.574;9.976;2024-03-02T11:27:01;13.30;1.00
14749;DHT22;7466;53.574;9.976;2024-03-02T11:29:44;13.30;1.00
14749;DHT22;7466;53.574;9.976;2024-03-02T11:32:16;13.20;1.00
14749;DHT22;7466;53.574;9.976;2024-03-02T11:34:45;13.00;1.00
14749;DHT22;7466;53.574;9.976;2024-03-02T11:37:15;13.00;1.00
14749;DHT22;7466;53.574;9.976;2024-03-02T11:39:44;13.10;1.00
14749;DHT22;7466;53.574;9.976;2024-03-02T11:42:11;13.10;1.00
14749;DHT22;7466;53.574;9.976;2024-03-02T11:44:41;13.10;1.00
14749;DHT22;7466;53.574;9.976;2024-03-02T11:47:10;13.20;1.00
14749;DHT22;7466;53.574;9.976;2024-03-02T11:49:40;13.20;1.00
14749;DHT22;7466;53.574;9.976;2024-03-02T11:52:08;13.20;1.00
14749;DHT22;7466;53.574;9.976;2024-03-02T11:54:37;13.30;1.00
14749;DHT22;7466;53.574;9.976;2024-03-02T11:57:06;13.30;1.00
14749;DHT22;7466;53.574;9.976;2024-03-02T11:59:33;13.30;1.00
14749;DHT22;7466;53.574;9.976;2024-03-02T12:02:00;13.30;1.00
14749;DHT22;7466;53.574;9.976;2024-03-02T12:04:27;13.20;1.00
14749;DHT22;7466;53.574;9.976;2024-03-02T12:06:59;13.30;1.00
14749;DHT22;7466;53.574;9.976;2024-03-02T12:09:26;13.10;1.00
14749;DHT22;7466;53.574;9.976;2024-03-02T12:12:05;13.10;1.00
14749;DHT22;7466;53.574;9.976;2024-03-02T12:14:33;13.10;1.00
14749;DHT22;7466;53.574;9.976;2024-03-02T12:17:05;13.20;1.00
14749;DHT22;7466;53.574;9.976;2024-03-02T12:19:33;13.10;1.00
14749;DHT22;7466;53.574;9.976;2024-03-02T12:22:00;13.00;1.00
14749;DHT22;7466;53.574;9.976;2024-03-02T12:24:29;13.20;1.00
14749;DHT22;7466;53.574;9.976;2024-03-02T12:26:57;13.30;1.00
14749;DHT22;7466;53.574;9.976;2024-03-02T12:29:26;13.30;1.00
14749;DHT22;7466;53.574;9.976;2024-03-02T12:31:55;13.20;1.00
14749;DHT22;7466;53.574;9.976;2024-03-02T12:34:25;13.10;1.00
14749;DHT22;7466;53.574;9.976;2024-03-02T12:36:52;13.10;1.00
14749;DHT22;7466;53.574;9.976;2024-03-02T12:39:19;13.20;1.00
14749;DHT22;7466;53.574;9.976;2024-03-02T12:41:47;13.20;1.00
14749;DHT22;7466;53.574;9.976;2024-03-02T12:44:16;13.20;1.00
14749;DHT22;7466;53.574;9.976;2024-03-02T12:46:44;13.30;1.00
14749;DHT22;7466;53.574;9.976;2024-03-02T12:49:13;13.30;1.00
14749;DHT22;7466;53.574;9.976;2024-03-02T12:51:42;13.20;1.00
14749;DHT22;7466;53.574;9.976;2024-03-02T12:54:09;13.20;1.00
14749;DHT22;7466;53.574;9.976;2024-03-02T12:56:37;13.20;1.00
14749;DHT22;7466;53.574;9.976;2024-03-02T12:59:04;13.40;1.00
14749;DHT22;7466;53.574;9.976;2024-03-02T13:01:31;13.30;1.00
14749;DHT22;7466;53.574;9.976;2024-03-02T13:03:59;13.30;1.00
14749;DHT22;7466;53.574;9.976;2024-03-02T13:06:26;13.30;1.00
14749;DHT22;7466;53.574;9.976;2024-03-02T13:08:54;13.10;1.00
14749;DHT22;7466;53.574;9.976;2024-03-02T13:11:23;13.30;1.00
14749;DHT22;7466;53.574;9.976;2024-03-02T13:13:50;13.40;1.00
14749;DHT22;7466;53.574;9.976;2024-03-02T13:16:18;13.20;1.00
14749;DHT22;7466;53.574;9.976;2024-03-02T13:18:49;13.10;1.00
14749;DHT22;7466;53.574;9.976;2024-03-02T13:21:36;12.90;1.00
14749;DHT22;7466;53.574;9.976;2024-03-02T13:24:17;13.00;1.00
14749;DHT22;7466;53.574;9.976;2024-03-02T13:29:13;13.10;1.00
14749;DHT22;7466;53.574;9.976;2024-03-02T13:31:40;13.10;1.00
14749;DHT22;7466;53.574;9.976;2024-03-02T13:34:06;13.30;1.00
14749;DHT22;7466;53.574;9.976;2024-03-02T13:36:35;13.40;1.00
14749;DHT22;7466;53.574;9.976;2024-03-02T13:39:04;13.30;1.00
14749;DHT22;7466;53.574;9.976;2024-03-02T13:41:31;13.20;1.00
14749;DHT22;7466;53.574;9.976;2024-03-02T13:43:58;13.40;1.00
14749;DHT22;7466;53.574;9.976;2024-03-02T13:46:26;13.70;1.00
14749;DHT22;7466;53.574;9.976;2024-03-02T13:48:54;14.00;1.00
14749;DHT22;7466;53.574;9.976;2024-03-02T13:51:21;14.20;1.00
14749;DHT22;7466;53.574;9.976;2024-03-02T13:53:49;14.40;1.00
14749;DHT22;7466;53.574;9.976;2024-03-02T13:56:16;14.00;1.00
14749;DHT22;7466;53.574;9.976;2024-03-02T13:58:43;14.10;1.00
14749;DHT22;7466;53.574;9.976;2024-03-02T14:01:14;14.10;1.00
14749;DHT22;7466;53.574;9.976;2024-03-02T14:03:41;14.20;1.00
14749;DHT22;7466;53.574;9.976;2024-03-02T14:06:08;14.10;1.00
14749;DHT22;7466;53.574;9.976;2024-03-02T14:08:34;14.10;1.00
14749;DHT22;7466;53.574;9.976;2024-03-02T14:11:03;14.20;1.00
14749;DHT22;7466;53.574;9.976;2024-03-02T14:13:30;14.70;1.00
14749;DHT22;7466;53.574;9.976;2024-03-02T14:15:56;14.90;99.90
14749;DHT22;7466;53.574;9.976;2024-03-02T14:18:23;15.10;99.90
14749;DHT22;7466;53.574;9.976;2024-03-02T14:20:50;15.30;99.90
14749;DHT22;7466;53.574;9.976;2024-03-02T14:23:18;14.50;99.90
14749;DHT22;7466;53.574;9.976;2024-03-02T14:25:45;14.00;1.00
14749;DHT22;7466;53.574;9.976;2024-03-02T14:28:13;13.70;1.00
14749;DHT22;7466;53.574;9.976;2024-03-02T14:30:41;13.60;1.00
14749;DHT22;7466;53.574;9.976;2024-03-02T14:33:08;13.40;1.00
14749;DHT22;7466;53.574;9.976;2024-03-02T14:35:36;13.40;1.00
14749;DHT22;7466;53.574;9.976;2024-03-02T14:38:03;13.40;1.00
14749;DHT22;7466;53.574;9.976;2024-03-02T14:40:31;13.40;1.00
14749;DHT22;7466;53.574;9.976;2024-03-02T14:42:58;13.40;1.00
14749;DHT22;7466;53.574;9.976;2024-03-02T14:45:26;13.20;1.00
14749;DHT22;7466;53.574;9.976;2024-03-02T14:47:53;13.20;1.00
14749;DHT22;7466;53.574;9.976;2024-03-02T14:50:20;13.20;1.00
14749;DHT22;7466;53.574;9.976;2024-03-02T14:52:47;13.30;1.00
14749;DHT22;7466;53.574;9.976;2024-03-02T14:55:14;13.10;1.00
14749;DHT22;7466;53.574;9.976;2024-03-02T14:57:41;13.10;1.00
14749;DHT22;7466;53.574;9.976;2024-03-02T15:00:09;13.10;1.00
14749;DHT22;7466;53.574;9.976;2024-03-02T15:02:38;13.00;1.00
14749;DHT22;7466;53.574;9.976;2024-03-02T15:05:05;13.00;1.00
14749;DHT22;7466;53.574;9.976;2024-03-02T15:07:32;13.10;1.00
14749;DHT22;7466;53.574;9.976;2024-03-02T15:09:59;13.00;1.00
14749;DHT22;7466;53.574;9.976;2024-03-02T15:12:25;13.00;1.00
14749;DHT22;7466;53.574;9.976;2024-03-02T15:14:53;13.00;1.00
14749;DHT22;7466;53.574;9.976;2024-03-02T15:17:19;13.00;1.00
14749;DHT22;7466;53.574;9.976;2024-03-02T15:19:47;13.00;1.00
14749;DHT22;7466;53.574;9.976;2024-03-02T15:22:14;12.90;1.00
14749;DHT22;7466;53.574;9.976;2024-03-02T15:24:44;12.90;1.00
14749;DHT22;7466;53.574;9.976;2024-03-02T15:27:10;12.90;1.00
14749;DHT22;7466;53.574;9.976;2024-03-02T15:29:37;12.90;1.00
14749;DHT22;7466;53.574;9.976;2024-03-02T15:32:04;12.90;1.00
14749;DHT22;7466;53.574;9.976;2024-03-02T15:34:32;12.80;1.00
14749;DHT22;7466;53.574;9.976;2024-03-02T15:37:00;12.70;1.00
14749;DHT22;7466;53.574;9.976;2024-03-02T15:39:28;12.70;1.00
14749;DHT22;7466;53.574;9.976;2024-03-02T15:41:55;12.60;1.00
14749;DHT22;7466;53.574;9.976;2024-03-02T15:44:23;12.60;1.00
14749;DHT22;7466;53.574;9.976;2024-03-02T15:46:50;12.50;1.00
14749;DHT22;7466;53.574;9.976;2024-03-02T15:49:17;12.50;1.00
14749;DHT22;7466;53.574;9.976;2024-03-02T15:51:43;12.50;1.00
14749;DHT22;7466;53.574;9.976;2024-03-02T15:54:12;12.50;1.00
14749;DHT22;7466;53.574;9.976;2024-03-02T15:56:39;12.40;1.00
14749;DHT22;7466;53.574;9.976;2024-03-02T15:59:06;12.40;1.00
14749;DHT22;7466;53.574;9.976;2024-03-02T16:01:33;12.40;1.00
14749;DHT22;7466;53.574;9.976;2024-03-02T16:04:00;12.30;1.00
14749;DHT22;7466;53.574;9.976;2024-03-02T16:06:27;12.30;1.00
14749;DHT22;7466;53.574;9.976;2024-03-02T16:08:54;12.30;1.00